ポルト・アレグレ の空港の天気 - METARとTAF

ポルト・アレグレ国際空港 ( SBPA / POA ) - ブラジル リオグランデ・ド・スル州ポルト・アレグレ
飛行場実況気象(Metar)
観測時間10/16 04:00 BRT (10/16 07:00 UTC)
風向・風速東南東 5m/s
視程10km以上
天気現象
少しの雲 雲底高度 300m
全天の8割程度の雲 雲底高度 1520m
全天を覆う雲 雲底高度 2130m
気温18℃
湿度88%
気圧1019hPa
METARSBPA 160700Z 12009KT 9999 FEW010 BKN050 OVC070 18/16 Q1019
過去の天気等 Google飛行場航空写真 Wunderground天気予報

過去48時間のMETAR

飛行場予報(TAF)
発表時間: 10/16 00:30 BRT (10/16 03:30 UTC)
予報対象時間: 16日3時 BRT ~ 17日3時 BRT
風向・風速東南東 5m/s
視程10km以上
全天の4割程度の雲 雲底高度 300m
全天の8割程度の雲 雲底高度 1220m
16日8時 BRT ~ 16日10時 BRT に一時的に
視程5000m
天気現象
全天の8割程度の雲 雲底高度 270m
全天の8割程度の雲 雲底高度 910m
16日15時 BRT ~ 17日3時 BRT に一時的に
視程5000m
天気現象雷雨
全天の8割程度の雲 雲底高度 300m
少しの積乱雲 雲底高度 1070m
TAF SBPA 160330Z 1606/1706 11010KT 9999 SCT010 BKN040 TN16/1607Z TX19/1618Z
TEMPO 1611/1613 5000 RA BKN009 BKN030
TEMPO 1618/1706 5000 TSRA BKN010 FEW035CB RMK PCX